Time;durP1;ratioP1;P1;durP2;ratioP2;P2;SDS_P1;SDS_P2;PMS_P1;PMS_P2;Temp;Humidity;BMP_temperature;BMP_pressure;BME280_temperature;BME280_humidity;BME280_pressure;Samples;Min_cycle;Max_cycle;Signal;HPM_P1;HPM_P2
2023/04/15 00:00:40;;;;;;;;;;;;;;;7.71;67.17;100752.84;5041836;28;1306;-79
2023/04/15 00:03:05;;;;;;;;;;;;;;;7.68;67.91;100753.06;5036229;28;1207;-79
2023/04/15 00:05:31;;;;;;;;;;;;;;;7.66;67.81;100754.94;5043230;28;1882;-79
2023/04/15 00:07:57;;;;;;;;;;;;;;;7.62;66.68;100751.72;5042663;28;1064;-79
2023/04/15 00:10:23;;;;;;;;;;;;;;;7.61;67.85;100746.69;5044629;28;1598;-79
2023/04/15 00:12:48;;;;;;;;;;;;;;;7.60;67.92;100747.63;5042932;28;1167;-81
2023/04/15 00:15:14;;;;;;;;;;;;;;;7.58;68.14;100757.25;5040584;28;1369;-79
2023/04/15 00:17:39;;;;;;;;;;;;;;;7.55;68.10;100757.44;5039796;28;1171;-79
2023/04/15 00:20:08;;;;;;;;;;;;;;;7.53;68.70;100754.16;5040105;28;1135;-79
2023/04/15 00:22:33;;;;;;;;;;;;;;;7.51;68.79;100745.66;5033750;28;1225;-79
2023/04/15 00:24:58;;;;;;;;;;;;;;;7.49;68.48;100747.53;5040135;28;1148;-79
2023/04/15 00:27:24;;;;;;;;;;;;;;;7.48;68.09;100751.88;5015088;28;1885;-80
2023/04/15 00:29:52;;;;;;;;;;;;;;;7.45;68.33;100742.63;5037054;28;1019;-79
2023/04/15 00:32:19;;;;;;;;;;;;;;;7.42;67.58;100742.81;5047125;28;1137;-79
2023/04/15 00:34:49;;;;;;;;;;;;;;;7.39;69.09;100744.78;5041801;28;1063;-79
2023/04/15 00:37:14;;;;;;;;;;;;;;;7.37;69.04;100744.88;5038556;28;965;-80
2023/04/15 00:39:42;;;;;;;;;;;;;;;7.35;69.49;100743.34;5047396;28;1369;-80
2023/04/15 00:42:09;;;;;;;;;;;;;;;7.33;69.73;100748.59;5030238;28;1573;-79
2023/04/15 00:44:37;;;;;;;;;;;;;;;7.31;69.27;100745.31;5049181;28;1021;-79
2023/04/15 00:47:10;;;;;;;;;;;;;;;7.29;69.63;100739.44;5042853;28;1945;-79
2023/04/15 00:49:35;;;;;;;;;;;;;;;7.27;69.66;100754.19;5027988;28;1326;-79
2023/04/15 00:52:03;;;;;;;;;;;;;;;7.25;69.03;100750.06;5045883;28;1168;-79
2023/04/15 00:54:28;;;;;;;;;;;;;;;7.22;70.03;100750.28;5046149;28;1160;-79
2023/04/15 00:56:53;;;;;;;;;;;;;;;7.18;69.55;100749.69;5030096;28;1318;-79
2023/04/15 00:59:20;;;;;;;;;;;;;;;7.16;69.83;100752.34;5040033;28;1153;-80
2023/04/15 01:01:45;;;;;;;;;;;;;;;7.16;70.19;100756.69;5024677;28;1523;-80
2023/04/15 01:04:13;;;;;;;;;;;;;;;7.14;70.78;100755.97;5017244;28;1502;-79
2023/04/15 01:06:39;;;;;;;;;;;;;;;7.09;69.99;100751.13;5043179;28;1961;-80
2023/04/15 01:09:04;;;;;;;;;;;;;;;7.06;70.81;100755.69;5046936;28;1268;-79
2023/04/15 01:11:31;;;;;;;;;;;;;;;7.02;71.20;100747.31;5025490;28;1347;-80
2023/04/15 01:13:57;;;;;;;;;;;;;;;7.00;71.76;100748.38;5044947;28;1101;-79
2023/04/15 01:16:22;;;;;;;;;;;;;;;6.97;70.92;100749.38;5046240;28;1082;-79
2023/04/15 01:18:48;;;;;;;;;;;;;;;6.93;71.19;100750.50;5028754;28;1503;-79
2023/04/15 01:21:16;;;;;;;;;;;;;;;6.89;71.46;100755.06;5039831;28;1263;-80
2023/04/15 01:23:45;;;;;;;;;;;;;;;6.87;70.99;100748.34;5044199;28;1081;-79
2023/04/15 01:26:13;;;;;;;;;;;;;;;6.85;71.11;100755.34;5041075;28;1898;-80
2023/04/15 01:28:38;;;;;;;;;;;;;;;6.78;70.69;100752.38;5046850;28;1363;-80
2023/04/15 01:31:08;;;;;;;;;;;;;;;6.74;71.15;100750.91;5040774;28;1336;-80
2023/04/15 01:33:37;;;;;;;;;;;;;;;6.71;71.69;100756.28;5047284;28;1120;-79
2023/04/15 01:36:07;;;;;;;;;;;;;;;6.67;72.20;100754.03;5047164;28;1199;-79
2023/04/15 01:38:38;;;;;;;;;;;;;;;6.66;71.62;100758.34;5016764;28;1223;-79
2023/04/15 01:41:06;;;;;;;;;;;;;;;6.61;72.60;100757.81;5036466;28;1112;-80
2023/04/15 01:43:40;;;;;;;;;;;;;;;6.60;72.10;100753.59;5046791;28;1225;-79
2023/04/15 01:46:07;;;;;;;;;;;;;;;6.56;72.06;100758.13;5039962;28;1870;-79
2023/04/15 01:48:40;;;;;;;;;;;;;;;6.51;72.98;100764.50;5023864;28;1588;-78
2023/04/15 01:51:23;;;;;;;;;;;;;;;6.48;73.33;100757.81;5020516;28;1806;-78
2023/04/15 01:53:48;;;;;;;;;;;;;;;6.43;73.70;100751.31;5040780;28;1412;-78
2023/04/15 01:56:14;;;;;;;;;;;;;;;6.46;72.71;100757.06;5037845;28;1317;-78
2023/04/15 01:58:42;;;;;;;;;;;;;;;6.45;73.34;100759.75;5039825;28;1121;-79
2023/04/15 02:01:24;;;;;;;;;;;;;;;6.43;72.72;100766.75;5021368;28;1326;-79
2023/04/15 02:03:49;;;;;;;;;;;;;;;6.41;72.38;100773.75;5044591;28;1096;-78
2023/04/15 02:06:30;;;;;;;;;;;;;;;6.37;74.04;100768.81;5040878;28;1898;-79
2023/04/15 02:09:03;;;;;;;;;;;;;;;6.36;74.47;100767.13;5028938;28;1204;-80
2023/04/15 02:11:44;;;;;;;;;;;;;;;;;;;;;
2023/04/15 02:14:26;;;;;;;;;;;;;;;6.32;73.61;100765.72;5040672;28;999;-79
2023/04/15 02:17:01;;;;;;;;;;;;;;;6.31;73.95;100766.63;5039136;28;1141;-78
2023/04/15 02:19:26;;;;;;;;;;;;;;;6.27;75.22;100762.59;5043667;28;1107;-78
2023/04/15 02:21:51;;;;;;;;;;;;;;;6.27;74.65;100765.19;5047629;28;1061;-78
2023/04/15 02:24:16;;;;;;;;;;;;;;;6.25;75.49;100764.47;5040793;28;1060;-79
2023/04/15 02:26:42;;;;;;;;;;;;;;;6.25;75.20;100763.59;5028822;28;1902;-78
2023/04/15 02:29:07;;;;;;;;;;;;;;;6.25;74.40;100764.47;5046765;28;1424;-79
2023/04/15 02:31:35;;;;;;;;;;;;;;;6.25;75.00;100777.34;5023657;28;1238;-79
2023/04/15 02:34:03;;;;;;;;;;;;;;;6.25;75.67;100774.75;5043021;28;1179;-78
2023/04/15 02:36:29;;;;;;;;;;;;;;;6.24;75.06;100765.34;5041067;28;1213;-78
2023/04/15 02:38:54;;;;;;;;;;;;;;;6.22;75.75;100776.69;5036564;28;1315;-78
2023/04/15 02:41:21;;;;;;;;;;;;;;;6.21;75.56;100778.44;5043757;28;1396;-79
2023/04/15 02:43:46;;;;;;;;;;;;;;;6.21;76.03;100775.88;5027894;28;1224;-79
2023/04/15 02:46:13;;;;;;;;;;;;;;;6.21;75.68;100778.44;5042732;28;2371;-78
2023/04/15 02:48:38;;;;;;;;;;;;;;;6.21;75.91;100773.28;5046749;28;1094;-78
2023/04/15 02:51:32;;;;;;;;;;;;;;;6.21;76.50;100775.88;5041751;28;1325;-78
2023/04/15 02:53:58;;;;;;;;;;;;;;;6.21;76.34;100788.75;5037790;28;1151;-78
2023/04/15 02:56:23;;;;;;;;;;;;;;;6.20;76.57;100784.53;5037008;28;1039;-78
2023/04/15 02:58:49;;;;;;;;;;;;;;;6.18;76.63;100780.38;5039114;28;1221;-79
2023/04/15 03:01:14;;;;;;;;;;;;;;;6.17;77.20;100792.44;5045611;28;1284;-79
2023/04/15 03:03:40;;;;;;;;;;;;;;;6.14;77.82;100792.66;5039685;28;1110;-78
2023/04/15 03:06:05;;;;;;;;;;;;;;;6.14;77.63;100792.66;5020055;28;1953;-78
2023/04/15 03:08:31;;;;;;;;;;;;;;;6.13;77.99;100796.13;5044722;28;1109;-78
2023/04/15 03:10:59;;;;;;;;;;;;;;;6.09;78.61;100794.69;5042702;28;1176;-78
2023/04/15 03:13:24;;;;;;;;;;;;;;;6.09;79.26;100794.69;5021795;28;1304;-78
2023/04/15 03:15:50;;;;;;;;;;;;;;;6.10;79.35;100793.75;5034283;28;1037;-78
2023/04/15 03:18:15;;;;;;;;;;;;;;;6.07;79.33;100797.34;5046371;28;1245;-78
2023/04/15 03:20:40;;;;;;;;;;;;;;;6.07;79.31;100792.19;5039848;28;1078;-78
2023/04/15 03:23:06;;;;;;;;;;;;;;;6.06;79.21;100793.13;5038589;28;1105;-78
2023/04/15 03:25:31;;;;;;;;;;;;;;;6.05;78.74;100801.75;5036989;28;1352;-78
2023/04/15 03:27:56;;;;;;;;;;;;;;;6.06;79.48;100805.97;5026006;28;1894;-78
2023/04/15 03:30:21;;;;;;;;;;;;;;;6.05;79.64;100803.50;5025508;28;1101;-78
2023/04/15 03:32:46;;;;;;;;;;;;;;;6.03;79.45;100806.19;5041336;28;1183;-77
2023/04/15 03:35:12;;;;;;;;;;;;;;;6.01;80.31;100812.34;5044930;28;1287;-78
2023/04/15 03:37:37;;;;;;;;;;;;;;;6.02;79.78;100819.13;5040315;28;1070;-78
2023/04/15 03:40:02;;;;;;;;;;;;;;;5.99;80.23;100814.19;5043400;28;1077;-78
2023/04/15 03:42:27;;;;;;;;;;;;;;;6.00;80.56;100814.09;5041708;28;1237;-78
2023/04/15 03:44:52;;;;;;;;;;;;;;;5.95;80.66;100812.72;5040814;28;1070;-77
2023/04/15 03:47:18;;;;;;;;;;;;;;;5.94;80.34;100818.81;5042641;28;1921;-78
2023/04/15 03:49:43;;;;;;;;;;;;;;;5.92;80.64;100825.81;5040484;28;1274;-78
2023/04/15 03:52:08;;;;;;;;;;;;;;;5.88;81.71;100821.72;5042527;28;1081;-78
2023/04/15 03:54:33;;;;;;;;;;;;;;;5.89;81.37;100828.53;5041667;28;1013;-78
2023/04/15 03:56:59;;;;;;;;;;;;;;;5.84;81.96;100829.63;5035609;28;1482;-79
2023/04/15 03:59:24;;;;;;;;;;;;;;;5.83;81.92;100834.88;5046460;28;1082;-79
2023/04/15 04:01:49;;;;;;;;;;;;;;;5.81;82.57;100842.69;5025466;28;1148;-78
2023/04/15 04:04:15;;;;;;;;;;;;;;;5.84;82.13;100833.94;5042355;28;1132;-79
2023/04/15 04:06:40;;;;;;;;;;;;;;;5.86;81.87;100845.81;5043632;28;1890;-79
2023/04/15 04:09:05;;;;;;;;;;;;;;;5.88;81.57;100843.16;5035152;28;1227;-79
2023/04/15 04:11:31;;;;;;;;;;;;;;;5.82;81.49;100852.06;5045786;28;1086;-78
2023/04/15 04:13:57;;;;;;;;;;;;;;;5.86;81.80;100850.97;5019311;28;1373;-78
2023/04/15 04:16:22;;;;;;;;;;;;;;;5.82;82.59;100849.50;5027251;28;1423;-78
2023/04/15 04:18:47;;;;;;;;;;;;;;;5.81;82.64;100853.00;5045758;28;1131;-79
2023/04/15 04:21:12;;;;;;;;;;;;;;;5.82;82.43;100854.66;5042587;28;1097;-78
2023/04/15 04:23:38;;;;;;;;;;;;;;;5.82;82.96;100858.97;5022127;28;1419;-78
2023/04/15 04:26:03;;;;;;;;;;;;;;;5.80;83.12;100861.66;5039208;28;1898;-78
2023/04/15 04:28:28;;;;;;;;;;;;;;;5.81;82.59;100867.63;5042511;28;1151;-78
2023/04/15 04:30:54;;;;;;;;;;;;;;;5.82;82.43;100874.41;5038780;28;1127;-80
2023/04/15 04:33:19;;;;;;;;;;;;;;;5.77;81.95;100866.97;5041297;28;1242;-79
2023/04/15 04:35:44;;;;;;;;;;;;;;;5.76;82.58;100880.75;5041618;28;1205;-79
2023/04/15 04:38:09;;;;;;;;;;;;;;;5.76;82.96;100885.91;5028914;28;1400;-78
2023/04/15 04:40:35;;;;;;;;;;;;;;;5.74;83.40;100880.03;5039961;28;1042;-78
2023/04/15 04:43:00;;;;;;;;;;;;;;;5.73;82.92;100883.50;5023928;28;1192;-80
2023/04/15 04:45:26;;;;;;;;;;;;;;;5.70;83.12;100886.28;5043907;28;1161;-78
2023/04/15 04:47:51;;;;;;;;;;;;;;;5.69;83.34;100894.91;5044743;28;1961;-79
2023/04/15 04:50:16;;;;;;;;;;;;;;;5.69;83.61;100897.50;5045028;28;1073;-79
2023/04/15 04:52:41;;;;;;;;;;;;;;;5.65;83.34;100896.00;5034311;28;1355;-78
2023/04/15 04:55:07;;;;;;;;;;;;;;;5.66;83.77;100904.56;5041637;28;1140;-78
2023/04/15 04:57:34;;;;;;;;;;;;;;;5.65;83.73;100911.44;5036105;28;1351;-78
2023/04/15 05:00:00;;;;;;;;;;;;;;;5.63;84.72;100910.72;5037211;28;1126;-78
2023/04/15 05:02:26;;;;;;;;;;;;;;;5.65;85.68;100924.31;5041051;28;1050;-79
2023/04/15 05:04:53;;;;;;;;;;;;;;;5.71;84.34;100918.81;5038993;28;1145;-79
2023/04/15 05:07:19;;;;;;;;;;;;;;;5.68;85.45;100919.00;5036306;28;1979;-78
2023/04/15 05:09:45;;;;;;;;;;;;;;;5.70;84.68;100927.44;5043606;28;1129;-78
2023/04/15 05:12:13;;;;;;;;;;;;;;;5.67;84.45;100922.47;5043590;28;1053;-81
2023/04/15 05:14:39;;;;;;;;;;;;;;;5.69;85.07;100936.09;5046002;28;997;-78
2023/04/15 05:17:04;;;;;;;;;;;;;;;5.70;83.96;100931.78;5042350;28;1185;-78
2023/04/15 05:19:29;;;;;;;;;;;;;;;5.68;83.71;100938.72;5039061;28;1296;-78
2023/04/15 05:21:55;;;;;;;;;;;;;;;5.69;84.39;100941.25;5047573;28;1165;-78
2023/04/15 05:24:20;;;;;;;;;;;;;;;5.66;84.14;100946.56;5045123;28;1139;-78
2023/04/15 05:26:45;;;;;;;;;;;;;;;5.66;84.14;100946.56;5028654;28;1893;-78
2023/04/15 05:29:11;;;;;;;;;;;;;;;5.64;84.41;100958.69;5040614;28;1093;-81
2023/04/15 05:31:36;;;;;;;;;;;;;;;5.66;84.25;100967.13;5029071;28;1273;-78
2023/04/15 05:34:02;;;;;;;;;;;;;;;5.66;84.39;100959.41;5047607;28;1073;-78
2023/04/15 05:36:27;;;;;;;;;;;;;;;5.67;84.15;100979.06;5046286;28;1211;-78
2023/04/15 05:38:53;;;;;;;;;;;;;;;5.68;84.96;100975.63;5048345;28;1220;-78
2023/04/15 05:41:18;;;;;;;;;;;;;;;5.68;84.80;100980.75;5043318;28;1098;-78
2023/04/15 05:43:43;;;;;;;;;;;;;;;5.70;84.96;100988.38;5045589;28;1237;-80
2023/04/15 05:46:08;;;;;;;;;;;;;;;5.72;85.88;100981.38;5029276;28;1947;-78
2023/04/15 05:48:37;;;;;;;;;;;;;;;5.72;85.34;100987.34;5047824;28;1127;-78
2023/04/15 05:51:02;;;;;;;;;;;;;;;5.73;86.17;100993.34;5030244;28;1105;-78
2023/04/15 05:53:27;;;;;;;;;;;;;;;5.73;85.64;100994.16;5029648;28;1302;-78
2023/04/15 05:55:52;;;;;;;;;;;;;;;5.75;85.21;100994.91;5048214;28;1146;-78
2023/04/15 05:58:17;;;;;;;;;;;;;;;5.75;85.72;100997.50;5027887;28;1425;-78
2023/04/15 06:00:52;;;;;;;;;;;;;;;5.76;85.71;101001.72;5023856;28;1110;-78
2023/04/15 06:03:17;;;;;;;;;;;;;;;5.76;85.06;100999.13;5047083;28;1052;-78
2023/04/15 06:05:44;;;;;;;;;;;;;;;5.77;85.06;101005.94;5037890;28;1217;-78
2023/04/15 06:08:10;;;;;;;;;;;;;;;5.77;85.29;101016.22;5026041;28;1349;-78
2023/04/15 06:10:35;;;;;;;;;;;;;;;5.74;85.34;101016.44;5047900;28;1087;-78
2023/04/15 06:13:03;;;;;;;;;;;;;;;5.74;85.21;101011.28;5045787;28;1058;-78
2023/04/15 06:15:29;;;;;;;;;;;;;;;5.75;85.05;101017.25;5043699;28;1046;-77
2023/04/15 06:17:55;;;;;;;;;;;;;;;5.77;85.06;101025.69;5036265;28;1218;-78
2023/04/15 06:20:20;;;;;;;;;;;;;;;5.80;85.21;101036.66;5045264;28;1086;-78
2023/04/15 06:22:45;;;;;;;;;;;;;;;5.82;85.52;101049.44;5025175;28;1584;-78
2023/04/15 06:25:10;;;;;;;;;;;;;;;5.83;85.05;101048.50;5025376;28;1277;-78
2023/04/15 06:27:36;;;;;;;;;;;;;;;5.83;85.42;101051.91;5025936;28;1890;-78
2023/04/15 06:30:01;;;;;;;;;;;;;;;5.87;85.45;101052.56;5047704;28;1329;-79
2023/04/15 06:32:26;;;;;;;;;;;;;;;5.90;85.71;101054.94;5040545;28;1853;-78
2023/04/15 06:34:51;;;;;;;;;;;;;;;5.93;85.54;101061.72;5045513;28;1118;-78
2023/04/15 06:37:17;;;;;;;;;;;;;;;5.98;86.27;101057.13;5043060;28;1066;-78
2023/04/15 06:39:43;;;;;;;;;;;;;;;6.01;86.08;101064.66;5043464;28;1581;-78
2023/04/15 06:42:08;;;;;;;;;;;;;;;6.07;85.90;101070.25;5043094;28;1360;-78
2023/04/15 06:44:34;;;;;;;;;;;;;;;6.14;86.56;101068.19;5028566;28;1385;-78
2023/04/15 06:47:00;;;;;;;;;;;;;;;6.22;87.87;101078.84;5041321;28;1875;-78
2023/04/15 06:49:25;;;;;;;;;;;;;;;6.29;87.06;101076.72;5038841;28;1102;-78
2023/04/15 06:51:51;;;;;;;;;;;;;;;6.36;86.98;101081.41;5018942;28;1269;-78
2023/04/15 06:54:17;;;;;;;;;;;;;;;6.44;86.93;101085.31;5034909;28;1081;-78
2023/04/15 06:56:42;;;;;;;;;;;;;;;6.52;87.39;101095.97;5034130;28;1126;-78
2023/04/15 06:59:07;;;;;;;;;;;;;;;6.60;87.19;101093.78;5044917;28;1288;-78
2023/04/15 07:01:33;;;;;;;;;;;;;;;6.69;87.50;101108.66;5040568;28;1145;-78
2023/04/15 07:03:58;;;;;;;;;;;;;;;6.77;86.55;101111.63;5044999;28;986;-78
2023/04/15 07:06:23;;;;;;;;;;;;;;;6.86;86.45;101105.88;5038213;28;1890;-78
2023/04/15 07:08:48;;;;;;;;;;;;;;;6.93;86.76;101107.16;5046407;28;1122;-78
2023/04/15 07:11:14;;;;;;;;;;;;;;;7.03;87.33;101111.75;5018442;28;1457;-78
2023/04/15 07:13:39;;;;;;;;;;;;;;;7.14;86.68;101115.31;5025455;28;1226;-78
2023/04/15 07:16:04;;;;;;;;;;;;;;;7.23;87.52;101128.56;5038621;28;1046;-78
2023/04/15 07:18:29;;;;;;;;;;;;;;;7.32;86.93;101118.47;5025347;28;1271;-79
2023/04/15 07:20:55;;;;;;;;;;;;;;;7.40;87.16;101126.59;5044810;28;1340;-78
2023/04/15 07:23:20;;;;;;;;;;;;;;;7.49;87.65;101134.66;5026832;28;1210;-78
2023/04/15 07:25:46;;;;;;;;;;;;;;;7.54;87.44;101142.94;5039634;28;1348;-78
2023/04/15 07:28:11;;;;;;;;;;;;;;;7.63;86.18;101142.34;5042454;28;1967;-78
2023/04/15 07:30:37;;;;;;;;;;;;;;;7.67;87.17;101154.13;5044037;28;1237;-77
2023/04/15 07:33:02;;;;;;;;;;;;;;;7.72;86.77;101152.06;5035616;28;1452;-78
2023/04/15 07:35:28;;;;;;;;;;;;;;;7.79;86.67;101157.66;5038309;28;1337;-78
2023/04/15 07:37:53;;;;;;;;;;;;;;;7.85;86.73;101158.09;5045569;28;1064;-78
2023/04/15 07:40:18;;;;;;;;;;;;;;;7.93;86.20;101160.19;5043969;28;1193;-78
2023/04/15 07:42:44;;;;;;;;;;;;;;;8.02;86.30;101163.91;5043785;28;984;-78
2023/04/15 07:45:09;;;;;;;;;;;;;;;8.10;86.14;101172.03;5045734;28;1108;-78
2023/04/15 07:47:35;;;;;;;;;;;;;;;8.20;84.09;101173.03;5033541;28;1898;-78
2023/04/15 07:50:01;;;;;;;;;;;;;;;8.25;82.18;101176.16;5042292;28;977;-78
2023/04/15 07:52:26;;;;;;;;;;;;;;;8.30;81.77;101174.09;5044446;28;990;-78
2023/04/15 07:54:51;;;;;;;;;;;;;;;8.35;79.92;101181.56;5040948;28;1381;-78
2023/04/15 07:57:17;;;;;;;;;;;;;;;8.41;80.63;101179.41;5036554;28;1094;-78
2023/04/15 07:59:42;;;;;;;;;;;;;;;8.48;79.89;101183.22;5039088;28;1051;-78
2023/04/15 08:02:08;;;;;;;;;;;;;;;8.50;80.15;101186.56;5042415;28;1065;-78
2023/04/15 08:04:33;;;;;;;;;;;;;;;8.54;79.65;101191.50;5025038;28;1269;-77
2023/04/15 08:06:59;;;;;;;;;;;;;;;8.57;79.74;101186.97;5038580;28;1985;-77
2023/04/15 08:09:25;;;;;;;;;;;;;;;8.59;78.72;101194.63;5045092;28;1181;-77
2023/04/15 08:11:51;;;;;;;;;;;;;;;8.62;78.34;101197.84;5046545;28;1071;-78
2023/04/15 08:14:16;;;;;;;;;;;;;;;8.59;77.97;101200.63;5027126;28;1309;-77
2023/04/15 08:16:41;;;;;;;;;;;;;;;8.61;78.06;101187.59;5037558;28;1033;-78
2023/04/15 08:19:06;;;;;;;;;;;;;;;8.67;77.92;101192.38;5041008;28;1148;-78
2023/04/15 08:21:32;;;;;;;;;;;;;;;8.70;76.00;101197.31;5038243;28;1131;-78
2023/04/15 08:23:57;;;;;;;;;;;;;;;8.75;77.00;101195.25;5044291;28;1117;-78
2023/04/15 08:26:22;;;;;;;;;;;;;;;8.82;77.12;101211.16;5024793;28;1902;-78
2023/04/15 08:28:48;;;;;;;;;;;;;;;8.83;75.51;101208.50;5040992;28;991;-78
2023/04/15 08:31:14;;;;;;;;;;;;;;;8.83;75.25;101210.22;5041063;28;1155;-79
2023/04/15 08:33:39;;;;;;;;;;;;;;;8.84;75.50;101215.31;5037799;28;1073;-78
2023/04/15 08:36:05;;;;;;;;;;;;;;;8.83;74.96;101207.63;5024933;28;1132;-77
2023/04/15 08:38:30;;;;;;;;;;;;;;;8.84;75.38;101230.00;5030757;28;1084;-78
2023/04/15 08:40:57;;;;;;;;;;;;;;;8.86;76.06;101223.78;5024444;28;1529;-78
2023/04/15 08:43:25;;;;;;;;;;;;;;;8.90;76.33;101229.59;5044330;28;1196;-78
2023/04/15 08:45:51;;;;;;;;;;;;;;;8.93;75.36;101232.78;5037478;28;1125;-78
2023/04/15 08:48:17;;;;;;;;;;;;;;;8.94;74.94;101237.03;5034571;28;1087;-77
2023/04/15 08:50:42;;;;;;;;;;;;;;;8.98;75.08;101241.06;5032040;28;1372;-78
2023/04/15 08:53:08;;;;;;;;;;;;;;;9.07;75.41;101251.72;5047001;28;1052;-77
2023/04/15 08:55:35;;;;;;;;;;;;;;;9.12;75.18;101249.63;5041834;28;1115;-78
2023/04/15 08:58:01;;;;;;;;;;;;;;;9.15;75.08;101260.59;5045476;28;1518;-78
2023/04/15 09:00:28;;;;;;;;;;;;;;;9.18;74.14;101260.41;5044369;28;1081;-78
2023/04/15 09:02:53;;;;;;;;;;;;;;;9.19;74.32;101271.59;5043948;28;1330;-78
2023/04/15 09:05:20;;;;;;;;;;;;;;;9.23;74.09;101273.00;5044947;28;1376;-78
2023/04/15 09:07:46;;;;;;;;;;;;;;;9.27;73.56;101274.47;5049008;28;1973;-78
2023/04/15 09:10:11;;;;;;;;;;;;;;;9.32;73.52;101272.38;5040926;28;1155;-77
2023/04/15 09:12:36;;;;;;;;;;;;;;;9.41;73.28;101276.94;5019515;28;1316;-78
2023/04/15 09:15:02;;;;;;;;;;;;;;;9.53;73.42;101270.91;5043677;28;1136;-79
2023/04/15 09:17:28;;;;;;;;;;;;;;;9.64;72.63;101279.69;5042648;28;1179;-79
2023/04/15 09:20:08;;;;;;;;;;;;;;;9.73;72.67;101289.38;5042967;28;1333;-78
2023/04/15 09:22:35;;;;;;;;;;;;;;;9.80;72.22;101290.59;5037094;28;1166;-80
2023/04/15 09:25:00;;;;;;;;;;;;;;;9.86;70.81;101287.56;5045095;28;1040;-78
2023/04/15 09:27:25;;;;;;;;;;;;;;;9.89;71.72;101297.72;5045156;28;1902;-78
2023/04/15 09:29:52;;;;;;;;;;;;;;;9.93;71.46;101291.41;5030794;28;1250;-78
2023/04/15 09:32:18;;;;;;;;;;;;;;;9.97;71.37;101299.75;5046613;28;1212;-77
2023/04/15 09:34:43;;;;;;;;;;;;;;;9.99;70.95;101309.09;5033794;28;1167;-77
2023/04/15 09:37:10;;;;;;;;;;;;;;;10.05;71.10;101308.66;5045729;28;1369;-78
2023/04/15 09:39:48;;;;;;;;;;;;;;;10.10;69.94;101310.94;5046657;28;1091;-78
2023/04/15 09:42:15;;;;;;;;;;;;;;;10.09;70.00;101310.09;5037518;28;1163;-78
2023/04/15 09:44:41;;;;;;;;;;;;;;;10.10;69.35;101316.94;5019745;28;1321;-78
2023/04/15 09:47:06;;;;;;;;;;;;;;;10.08;68.91;101313.59;5043957;28;1967;-77
2023/04/15 09:49:31;;;;;;;;;;;;;;;10.07;67.72;101317.13;5028910;28;1249;-78
2023/04/15 09:51:58;;;;;;;;;;;;;;;10.11;68.72;101318.59;5040125;28;1168;-78
2023/04/15 09:54:23;;;;;;;;;;;;;;;10.08;67.26;101329.16;5026801;28;1435;-78
2023/04/15 09:56:49;;;;;;;;;;;;;;;10.17;68.43;101324.28;5045475;28;1041;-79
2023/04/15 09:59:14;;;;;;;;;;;;;;;10.22;68.71;101329.97;5045064;28;1107;-78
2023/04/15 10:01:41;;;;;;;;;;;;;;;10.24;68.75;101328.09;5032045;28;1187;-79
2023/04/15 10:04:07;;;;;;;;;;;;;;;10.25;69.50;101334.94;5018201;28;1342;-79
2023/04/15 10:06:33;;;;;;;;;;;;;;;10.37;70.06;101328.84;5037627;28;1885;-79
2023/04/15 10:09:12;;;;;;;;;;;;;;;10.43;68.42;101323.22;5040119;28;1101;-79
2023/04/15 10:11:51;;;;;;;;;;;;;;;10.50;67.00;101336.59;5032424;28;1360;-78
2023/04/15 10:14:20;;;;;;;;;;;;;;;10.49;68.83;101338.34;5047559;28;946;-79
2023/04/15 10:16:49;;;;;;;;;;;;;;;10.57;68.79;101335.19;5025799;28;1386;-79
2023/04/15 10:19:20;;;;;;;;;;;;;;;10.66;69.44;101338.88;5045897;28;1098;-79
2023/04/15 10:21:49;;;;;;;;;;;;;;;10.74;69.01;101336.56;5048068;28;1098;-78
2023/04/15 10:24:23;;;;;;;;;;;;;;;10.78;67.63;101333.63;5039092;28;935;-80
2023/04/15 10:26:51;;;;;;;;;;;;;;;10.87;69.85;101342.47;5044308;28;1952;-78
2023/04/15 10:29:19;;;;;;;;;;;;;;;10.97;67.18;101330.47;5047286;28;1179;-80
2023/04/15 10:31:45;;;;;;;;;;;;;;;11.06;67.37;101332.34;5036753;28;1450;-79
2023/04/15 10:34:11;;;;;;;;;;;;;;;11.13;67.06;101328.38;5042658;28;1273;-78
2023/04/15 10:36:36;;;;;;;;;;;;;;;11.15;66.46;101336.88;5043437;28;1580;-78
2023/04/15 10:39:01;;;;;;;;;;;;;;;11.20;65.33;101333.09;5036619;28;1118;-78
2023/04/15 10:41:30;;;;;;;;;;;;;;;11.25;66.69;101341.38;5042799;28;1141;-79
2023/04/15 10:43:58;;;;;;;;;;;;;;;11.29;64.59;101347.97;5040097;28;1132;-79
2023/04/15 10:46:35;;;;;;;;;;;;;;;11.30;65.94;101337.47;5040572;28;1956;-79
2023/04/15 10:49:05;;;;;;;;;;;;;;;11.35;63.62;101355.28;5040364;28;1108;-79
2023/04/15 10:51:31;;;;;;;;;;;;;;;11.36;65.35;101359.56;5021930;28;1439;-78
2023/04/15 10:53:59;;;;;;;;;;;;;;;11.48;63.82;101358.63;5045188;28;1147;-79
2023/04/15 10:56:25;;;;;;;;;;;;;;;11.40;64.19;101360.97;5044656;28;1209;-78
2023/04/15 10:58:50;;;;;;;;;;;;;;;11.45;63.79;101361.44;5045159;28;1268;-78
2023/04/15 11:01:16;;;;;;;;;;;;;;;11.49;62.38;101355.06;5036009;28;1074;-78
2023/04/15 11:03:41;;;;;;;;;;;;;;;11.47;64.17;101356.97;5036857;28;1411;-80
2023/04/15 11:06:07;;;;;;;;;;;;;;;11.54;65.32;101372.91;5042759;28;1894;-78
2023/04/15 11:08:51;;;;;;;;;;;;;;;11.64;63.75;101374.69;5040865;28;1139;-79
2023/04/15 11:11:16;;;;;;;;;;;;;;;11.57;61.41;101370.88;5039729;28;1032;-78
2023/04/15 11:13:48;;;;;;;;;;;;;;;11.44;61.05;101372.78;5027945;28;1363;-78
2023/04/15 11:16:14;;;;;;;;;;;;;;;11.38;63.19;101363.69;5040704;28;1096;-78
2023/04/15 11:18:39;;;;;;;;;;;;;;;11.36;64.32;101370.78;5033814;28;1366;-78
2023/04/15 11:21:06;;;;;;;;;;;;;;;11.45;65.22;101384.81;5040669;28;1129;-78
2023/04/15 11:23:45;;;;;;;;;;;;;;;11.49;64.69;101381.03;5027302;28;1512;-79
2023/04/15 11:26:11;;;;;;;;;;;;;;;11.54;65.74;101383.28;5044164;28;1898;-79
2023/04/15 11:28:37;;;;;;;;;;;;;;;11.60;62.72;101381.06;5035250;28;1112;-80
2023/04/15 11:31:10;;;;;;;;;;;;;;;11.57;64.24;101386.47;5039438;28;1062;-78
2023/04/15 11:33:35;;;;;;;;;;;;;;;11.56;64.40;101387.41;5039782;28;1276;-79
2023/04/15 11:36:00;;;;;;;;;;;;;;;11.54;63.86;101381.53;5031410;28;1018;-77
2023/04/15 11:38:26;;;;;;;;;;;;;;;11.55;64.08;101380.56;5028729;28;1222;-79
2023/04/15 11:40:52;;;;;;;;;;;;;;;11.56;64.51;101390.03;5038618;28;1026;-78
2023/04/15 11:43:21;;;;;;;;;;;;;;;11.68;64.67;101385.66;5044711;28;1526;-78
2023/04/15 11:45:50;;;;;;;;;;;;;;;11.71;64.94;101390.63;5027064;28;1400;-78
2023/04/15 11:48:16;;;;;;;;;;;;;;;11.76;62.92;101398.06;5025454;28;2325;-78
2023/04/15 11:50:41;;;;;;;;;;;;;;;11.80;62.96;101389.88;5044913;28;1163;-77
2023/04/15 11:53:07;;;;;;;;;;;;;;;11.99;64.40;101388.50;5047126;28;1333;-78
2023/04/15 11:55:43;;;;;;;;;;;;;;;12.03;63.41;101390.72;5042616;28;1265;-78
2023/04/15 11:58:13;;;;;;;;;;;;;;;11.95;62.81;101391.34;5040509;28;1138;-78
2023/04/15 12:00:40;;;;;;;;;;;;;;;12.00;65.68;101393.59;5042723;28;1041;-79
2023/04/15 12:03:25;;;;;;;;;;;;;;;12.10;65.78;101402.31;5022566;28;1303;-76
2023/04/15 12:06:07;;;;;;;;;;;;;;;12.11;63.95;101398.75;5028060;28;1421;-76
2023/04/15 12:08:54;;;;;;;;;;;;;;;11.99;63.25;101404.09;5048633;28;1176;-76
2023/04/15 12:11:21;;;;;;;;;;;;;;;11.90;62.74;101405.63;5049466;28;1083;-77
2023/04/15 12:13:56;;;;;;;;;;;;;;;11.86;64.32;101412.84;5042184;28;997;-76
2023/04/15 12:16:22;;;;;;;;;;;;;;;11.87;62.82;101413.66;5045836;28;1335;-77
2023/04/15 12:19:12;;;;;;;;;;;;;;;11.94;62.30;101404.47;5034453;28;1135;-75
2023/04/15 12:21:38;;;;;;;;;;;;;;;12.07;61.99;101407.75;5032138;28;1057;-75
2023/04/15 12:24:31;;;;;;;;;;;;;;;12.17;63.51;101419.09;5035374;28;1315;-75
2023/04/15 12:27:00;;;;;;;;;;;;;;;12.38;63.68;101426.13;5041189;28;1898;-75
2023/04/15 12:29:47;;;;;;;;;;;;;;;12.36;61.58;101422.81;5050996;28;1163;-76
2023/04/15 12:32:13;;;;;;;;;;;;;;;12.25;61.34;101435.84;5046230;28;1041;-76
2023/04/15 12:35:04;;;;;;;;;;;;;;;12.23;61.49;101431.59;5046393;28;1397;-78
2023/04/15 12:37:29;;;;;;;;;;;;;;;12.33;63.35;101438.66;5046066;28;1253;-77
2023/04/15 12:40:22;;;;;;;;;;;;;;;12.36;60.85;101431.44;5049626;28;1118;-77
2023/04/15 12:42:47;;;;;;;;;;;;;;;12.19;62.22;101448.38;5044511;28;1166;-77
2023/04/15 12:45:12;;;;;;;;;;;;;;;12.05;60.83;101456.44;5039136;28;1174;-76
2023/04/15 12:47:37;;;;;;;;;;;;;;;11.94;60.92;101448.66;5040256;28;1894;-76
2023/04/15 12:50:03;;;;;;;;;;;;;;;12.04;62.01;101454.78;5044471;28;1257;-76
2023/04/15 12:52:28;;;;;;;;;;;;;;;12.17;61.44;101455.50;5047479;28;1445;-77
2023/04/15 12:54:53;;;;;;;;;;;;;;;12.07;60.17;101464.94;5039859;28;1069;-74